sensor_id;sensor_type;location;lat;lon;timestamp;pressure;altitude;pressure_sealevel;temperature;humidity
32761;BME280;19126;47.472;7.850;2022-09-25T00:01:11;96265.06;;;8.40;9.05
32761;BME280;19126;47.472;7.850;2022-09-25T00:03:39;96258.38;;;8.38;9.66
32761;BME280;19126;47.472;7.850;2022-09-25T00:06:11;96257.38;;;8.39;10.34
32761;BME280;19126;47.472;7.850;2022-09-25T00:08:39;96264.25;;;8.40;8.94
32761;BME280;19126;47.472;7.850;2022-09-25T00:11:10;96261.28;;;8.43;9.45
32761;BME280;19126;47.472;7.850;2022-09-25T00:13:39;96264.25;;;8.40;9.36
32761;BME280;19126;47.472;7.850;2022-09-25T00:16:10;96270.81;;;8.35;9.75
32761;BME280;19126;47.472;7.850;2022-09-25T00:18:37;96275.72;;;8.30;9.78
32761;BME280;19126;47.472;7.850;2022-09-25T00:21:22;96276.38;;;8.32;9.83
32761;BME280;19126;47.472;7.850;2022-09-25T00:23:56;96279.97;;;8.31;9.33
32761;BME280;19126;47.472;7.850;2022-09-25T00:26:26;96279.16;;;8.31;9.35
32761;BME280;19126;47.472;7.850;2022-09-25T00:28:54;96277.69;;;8.36;8.97
32761;BME280;19126;47.472;7.850;2022-09-25T00:31:22;96273.88;;;8.39;10.49
32761;BME280;19126;47.472;7.850;2022-09-25T00:33:50;96262.44;;;8.40;10.19
32761;BME280;19126;47.472;7.850;2022-09-25T00:36:18;96257.69;;;8.44;10.95
32761;BME280;19126;47.472;7.850;2022-09-25T00:38:46;96255.41;;;8.49;9.91
32761;BME280;19126;47.472;7.850;2022-09-25T00:41:14;96261.28;;;8.51;10.21
32761;BME280;19126;47.472;7.850;2022-09-25T00:43:46;96254.56;;;8.48;10.35
32761;BME280;19126;47.472;7.850;2022-09-25T00:46:18;96250.81;;;8.51;11.05
32761;BME280;19126;47.472;7.850;2022-09-25T00:48:50;96242.63;;;8.54;10.40
32761;BME280;19126;47.472;7.850;2022-09-25T00:51:24;96234.59;;;8.56;9.99
32761;BME280;19126;47.472;7.850;2022-09-25T00:53:56;96231.97;;;8.56;9.92
32761;BME280;19126;47.472;7.850;2022-09-25T00:56:30;96237.22;;;8.47;10.29
32761;BME280;19126;47.472;7.850;2022-09-25T00:59:02;96250.50;;;8.46;11.05
32761;BME280;19126;47.472;7.850;2022-09-25T01:01:29;96229.59;;;8.38;10.53
32761;BME280;19126;47.472;7.850;2022-09-25T01:03:58;96220.75;;;8.39;10.57
32761;BME280;19126;47.472;7.850;2022-09-25T01:06:27;96220.75;;;8.39;10.52
32761;BME280;19126;47.472;7.850;2022-09-25T01:08:55;96230.22;;;8.40;9.92
32761;BME280;19126;47.472;7.850;2022-09-25T01:11:23;96225.63;;;8.42;10.71
32761;BME280;19126;47.472;7.850;2022-09-25T01:13:53;96228.56;;;8.47;10.73
32761;BME280;19126;47.472;7.850;2022-09-25T01:16:30;96231.50;;;8.52;11.82
32761;BME280;19126;47.472;7.850;2022-09-25T01:19:14;96230.81;;;8.58;11.40
32761;BME280;19126;47.472;7.850;2022-09-25T01:21:51;96233.25;;;8.60;10.33
32761;BME280;19126;47.472;7.850;2022-09-25T01:24:41;96235.22;;;8.58;11.38
32761;BME280;19126;47.472;7.850;2022-09-25T01:27:39;96241.78;;;8.54;10.72
32761;BME280;19126;47.472;7.850;2022-09-25T01:30:12;96234.47;;;8.49;11.08
32761;BME280;19126;47.472;7.850;2022-09-25T01:32:57;96222.19;;;8.49;11.59
32761;BME280;19126;47.472;7.850;2022-09-25T01:35:36;96225.75;;;8.48;11.30
32761;BME280;19126;47.472;7.850;2022-09-25T01:38:20;96213.34;;;8.50;11.81
32761;BME280;19126;47.472;7.850;2022-09-25T01:40:56;96206.47;;;8.49;11.19
32761;BME280;19126;47.472;7.850;2022-09-25T01:43:33;96202.53;;;8.54;11.12
32761;BME280;19126;47.472;7.850;2022-09-25T01:46:08;96204.81;;;8.57;12.27
32761;BME280;19126;47.472;7.850;2022-09-25T01:48:38;96203.16;;;8.56;12.04
32761;BME280;19126;47.472;7.850;2022-09-25T01:51:13;96205.44;;;8.59;11.26
32761;BME280;19126;47.472;7.850;2022-09-25T01:53:47;96208.25;;;8.57;12.08
32761;BME280;19126;47.472;7.850;2022-09-25T01:56:22;96207.06;;;8.60;11.04
32761;BME280;19126;47.472;7.850;2022-09-25T01:58:54;96210.69;;;8.59;11.72
32761;BME280;19126;47.472;7.850;2022-09-25T02:01:28;96202.38;;;8.55;11.43
32761;BME280;19126;47.472;7.850;2022-09-25T02:04:02;96207.91;;;8.60;11.60
32761;BME280;19126;47.472;7.850;2022-09-25T02:06:32;96206.38;;;8.66;12.87
32761;BME280;19126;47.472;7.850;2022-09-25T02:09:05;96200.69;;;8.62;11.95
32761;BME280;19126;47.472;7.850;2022-09-25T02:11:38;96195.13;;;8.65;12.50
32761;BME280;19126;47.472;7.850;2022-09-25T02:14:11;96201.44;;;8.71;11.93
32761;BME280;19126;47.472;7.850;2022-09-25T02:16:42;96196.84;;;8.73;11.87
32761;BME280;19126;47.472;7.850;2022-09-25T02:19:15;96194.06;;;8.75;12.32
32761;BME280;19126;47.472;7.850;2022-09-25T02:22:06;96197.69;;;8.74;13.17
32761;BME280;19126;47.472;7.850;2022-09-25T02:24:39;96202.44;;;8.70;11.72
32761;BME280;19126;47.472;7.850;2022-09-25T02:27:09;96204.25;;;8.70;13.42
32761;BME280;19126;47.472;7.850;2022-09-25T02:29:36;96200.50;;;8.64;13.09
32761;BME280;19126;47.472;7.850;2022-09-25T02:32:08;96196.75;;;8.67;11.84
32761;BME280;19126;47.472;7.850;2022-09-25T02:34:37;96201.97;;;8.67;12.64
32761;BME280;19126;47.472;7.850;2022-09-25T02:37:09;96198.84;;;8.71;13.06
32761;BME280;19126;47.472;7.850;2022-09-25T02:39:37;96197.19;;;8.70;13.62
32761;BME280;19126;47.472;7.850;2022-09-25T02:42:19;96201.63;;;8.70;12.56
32761;BME280;19126;47.472;7.850;2022-09-25T02:45:13;96206.69;;;8.71;13.05
32761;BME280;19126;47.472;7.850;2022-09-25T02:48:00;96199.66;;;8.72;12.94
32761;BME280;19126;47.472;7.850;2022-09-25T02:50:37;96190.63;;;8.74;13.41
32761;BME280;19126;47.472;7.850;2022-09-25T02:53:14;96208.63;;;8.77;12.28
32761;BME280;19126;47.472;7.850;2022-09-25T02:55:48;96199.63;;;8.80;12.61
32761;BME280;19126;47.472;7.850;2022-09-25T02:58:22;96207.94;;;8.84;12.69
32761;BME280;19126;47.472;7.850;2022-09-25T03:00:53;96202.19;;;8.88;12.66
32761;BME280;19126;47.472;7.850;2022-09-25T03:03:24;96200.19;;;8.90;13.82
32761;BME280;19126;47.472;7.850;2022-09-25T03:05:55;96199.38;;;8.90;12.87
32761;BME280;19126;47.472;7.850;2022-09-25T03:08:24;96187.25;;;8.89;13.56
32761;BME280;19126;47.472;7.850;2022-09-25T03:11:04;96195.59;;;8.92;13.10
32761;BME280;19126;47.472;7.850;2022-09-25T03:13:32;96194.13;;;8.90;13.35
32761;BME280;19126;47.472;7.850;2022-09-25T03:16:03;96195.75;;;8.91;13.69
32761;BME280;19126;47.472;7.850;2022-09-25T03:18:33;96203.97;;;8.88;13.57
32761;BME280;19126;47.472;7.850;2022-09-25T03:21:00;96210.03;;;8.88;12.56
32761;BME280;19126;47.472;7.850;2022-09-25T03:23:29;96198.56;;;8.89;13.00
32761;BME280;19126;47.472;7.850;2022-09-25T03:25:56;96200.34;;;8.89;14.20
32761;BME280;19126;47.472;7.850;2022-09-25T03:28:24;96195.31;;;8.87;13.30
32761;BME280;19126;47.472;7.850;2022-09-25T03:30:57;96202.19;;;8.88;13.03
32761;BME280;19126;47.472;7.850;2022-09-25T03:33:26;96200.19;;;8.90;13.61
32761;BME280;19126;47.472;7.850;2022-09-25T03:36:05;96203.81;;;8.89;14.32
32761;BME280;19126;47.472;7.850;2022-09-25T03:38:32;96203.97;;;8.88;13.97
32761;BME280;19126;47.472;7.850;2022-09-25T03:41:00;96206.25;;;8.91;13.73
32761;BME280;19126;47.472;7.850;2022-09-25T03:43:27;96203.63;;;8.91;13.52
32761;BME280;19126;47.472;7.850;2022-09-25T03:45:58;96208.06;;;8.90;13.35
32761;BME280;19126;47.472;7.850;2022-09-25T03:48:25;96207.06;;;8.91;13.80
32761;BME280;19126;47.472;7.850;2022-09-25T03:50:52;96203.47;;;8.92;13.50
32761;BME280;19126;47.472;7.850;2022-09-25T03:53:22;96197.41;;;8.92;13.16
32761;BME280;19126;47.472;7.850;2022-09-25T03:55:50;96206.88;;;8.93;13.81
32761;BME280;19126;47.472;7.850;2022-09-25T03:58:17;96197.41;;;8.92;14.23
32761;BME280;19126;47.472;7.850;2022-09-25T04:00:45;96194.63;;;8.93;13.63
32761;BME280;19126;47.472;7.850;2022-09-25T04:03:13;96204.09;;;8.94;14.00
32761;BME280;19126;47.472;7.850;2022-09-25T04:05:41;96201.47;;;8.94;13.81
32761;BME280;19126;47.472;7.850;2022-09-25T04:08:09;96199.66;;;8.95;13.45
32761;BME280;19126;47.472;7.850;2022-09-25T04:10:37;96198.50;;;8.98;14.38
32761;BME280;19126;47.472;7.850;2022-09-25T04:13:05;96198.69;;;8.96;13.55
32761;BME280;19126;47.472;7.850;2022-09-25T04:15:33;96196.06;;;8.96;14.41
32761;BME280;19126;47.472;7.850;2022-09-25T04:18:00;96201.13;;;8.98;14.47
32761;BME280;19126;47.472;7.850;2022-09-25T04:20:27;96196.69;;;8.98;13.56
32761;BME280;19126;47.472;7.850;2022-09-25T04:22:54;96196.53;;;9.00;14.58
32761;BME280;19126;47.472;7.850;2022-09-25T04:25:22;96199.97;;;9.00;13.50
32761;BME280;19126;47.472;7.850;2022-09-25T04:27:52;96198.97;;;9.01;14.00
32761;BME280;19126;47.472;7.850;2022-09-25T04:30:21;96193.09;;;8.99;14.25
32761;BME280;19126;47.472;7.850;2022-09-25T04:32:48;96191.44;;;8.98;14.65
32761;BME280;19126;47.472;7.850;2022-09-25T04:35:33;96198.69;;;8.96;14.09
32761;BME280;19126;47.472;7.850;2022-09-25T04:38:01;96193.44;;;8.96;14.60
32761;BME280;19126;47.472;7.850;2022-09-25T04:40:29;96196.25;;;8.94;14.00
32761;BME280;19126;47.472;7.850;2022-09-25T04:43:01;96194.06;;;8.98;13.58
32761;BME280;19126;47.472;7.850;2022-09-25T04:45:31;96196.88;;;8.97;14.04
32761;BME280;19126;47.472;7.850;2022-09-25T04:48:00;96199.31;;;8.98;14.62
32761;BME280;19126;47.472;7.850;2022-09-25T04:50:28;96198.31;;;8.99;14.60
32761;BME280;19126;47.472;7.850;2022-09-25T04:52:56;96198.81;;;9.03;13.96
32761;BME280;19126;47.472;7.850;2022-09-25T04:55:25;96203.06;;;9.04;13.81
32761;BME280;19126;47.472;7.850;2022-09-25T04:57:53;96207.47;;;9.03;14.32
32761;BME280;19126;47.472;7.850;2022-09-25T05:00:23;96201.44;;;9.03;14.41
32761;BME280;19126;47.472;7.850;2022-09-25T05:02:51;96203.22;;;9.02;14.02
32761;BME280;19126;47.472;7.850;2022-09-25T05:05:18;96204.50;;;9.06;13.81
32761;BME280;19126;47.472;7.850;2022-09-25T05:07:52;96216.78;;;9.06;14.25
32761;BME280;19126;47.472;7.850;2022-09-25T05:10:19;96211.56;;;9.06;14.95
32761;BME280;19126;47.472;7.850;2022-09-25T05:12:47;96212.00;;;9.09;13.95
32761;BME280;19126;47.472;7.850;2022-09-25T05:15:21;96209.22;;;9.11;15.26
32761;BME280;19126;47.472;7.850;2022-09-25T05:17:48;96212.84;;;9.10;14.53
32761;BME280;19126;47.472;7.850;2022-09-25T05:20:17;96213.47;;;9.12;14.56
32761;BME280;19126;47.472;7.850;2022-09-25T05:22:44;96212.28;;;9.15;13.97
32761;BME280;19126;47.472;7.850;2022-09-25T05:25:12;96211.31;;;9.16;13.84
32761;BME280;19126;47.472;7.850;2022-09-25T05:27:39;96218.19;;;9.17;15.10
32761;BME280;19126;47.472;7.850;2022-09-25T05:30:08;96217.19;;;9.18;13.81
32761;BME280;19126;47.472;7.850;2022-09-25T05:32:37;96207.06;;;9.15;14.52
32761;BME280;19126;47.472;7.850;2022-09-25T05:35:06;96218.19;;;9.17;14.73
32761;BME280;19126;47.472;7.850;2022-09-25T05:37:33;96214.41;;;9.19;13.82
32761;BME280;19126;47.472;7.850;2022-09-25T05:40:01;96217.81;;;9.20;14.50
32761;BME280;19126;47.472;7.850;2022-09-25T05:42:29;96215.22;;;9.20;14.28
32761;BME280;19126;47.472;7.850;2022-09-25T05:44:56;96216.03;;;9.20;14.10
32761;BME280;19126;47.472;7.850;2022-09-25T05:47:23;96222.91;;;9.21;14.06
32761;BME280;19126;47.472;7.850;2022-09-25T05:49:52;96222.72;;;9.23;15.24
32761;BME280;19126;47.472;7.850;2022-09-25T05:52:19;96223.19;;;9.27;13.92
32761;BME280;19126;47.472;7.850;2022-09-25T05:54:46;96224.81;;;9.28;14.32
32761;BME280;19126;47.472;7.850;2022-09-25T05:57:13;96227.44;;;9.28;15.49
32761;BME280;19126;47.472;7.850;2022-09-25T05:59:40;96228.09;;;9.30;14.45
32761;BME280;19126;47.472;7.850;2022-09-25T06:02:10;96228.72;;;9.32;14.91
32761;BME280;19126;47.472;7.850;2022-09-25T06:04:37;96228.91;;;9.30;15.20
32761;BME280;19126;47.472;7.850;2022-09-25T06:07:06;96236.59;;;9.32;15.02
32761;BME280;19126;47.472;7.850;2022-09-25T06:09:35;96230.72;;;9.30;13.78
32761;BME280;19126;47.472;7.850;2022-09-25T06:12:02;96227.94;;;9.31;14.09
32761;BME280;19126;47.472;7.850;2022-09-25T06:14:29;96233.47;;;9.36;14.13
32761;BME280;19126;47.472;7.850;2022-09-25T06:16:56;96232.13;;;9.41;14.91
32761;BME280;19126;47.472;7.850;2022-09-25T06:19:24;96230.94;;;9.43;15.43
32761;BME280;19126;47.472;7.850;2022-09-25T06:21:53;96230.41;;;9.48;15.54
32761;BME280;19126;47.472;7.850;2022-09-25T06:24:23;96236.09;;;9.51;14.41
32761;BME280;19126;47.472;7.850;2022-09-25T06:26:50;96223.63;;;9.53;14.28
32761;BME280;19126;47.472;7.850;2022-09-25T06:29:17;96240.91;;;9.48;14.39
32761;BME280;19126;47.472;7.850;2022-09-25T06:31:45;96237.44;;;9.47;14.58
32761;BME280;19126;47.472;7.850;2022-09-25T06:34:12;96233.19;;;9.46;15.36
32761;BME280;19126;47.472;7.850;2022-09-25T06:36:39;96235.66;;;9.48;15.17
32761;BME280;19126;47.472;7.850;2022-09-25T06:39:07;96236.75;;;9.53;14.38
32761;BME280;19126;47.472;7.850;2022-09-25T06:41:35;96243.09;;;9.59;13.88
32761;BME280;19126;47.472;7.850;2022-09-25T06:44:02;96230.63;;;9.61;14.29
32761;BME280;19126;47.472;7.850;2022-09-25T06:46:30;96235.31;;;9.66;14.63
32761;BME280;19126;47.472;7.850;2022-09-25T06:48:57;96237.94;;;9.66;13.90
32761;BME280;19126;47.472;7.850;2022-09-25T06:51:25;96240.22;;;9.69;14.49
32761;BME280;19126;47.472;7.850;2022-09-25T06:53:53;96236.97;;;9.67;14.80
32761;BME280;19126;47.472;7.850;2022-09-25T06:56:21;96239.06;;;9.72;14.65
32761;BME280;19126;47.472;7.850;2022-09-25T06:58:50;96248.56;;;9.73;14.34
32761;BME280;19126;47.472;7.850;2022-09-25T07:01:17;96244.75;;;9.75;14.53
32761;BME280;19126;47.472;7.850;2022-09-25T07:03:44;96243.94;;;9.75;14.04
32761;BME280;19126;47.472;7.850;2022-09-25T07:06:13;96235.72;;;9.78;14.67
32761;BME280;19126;47.472;7.850;2022-09-25T07:08:41;96245.84;;;9.81;14.00
32761;BME280;19126;47.472;7.850;2022-09-25T07:11:12;96243.69;;;9.85;14.40
32761;BME280;19126;47.472;7.850;2022-09-25T07:13:40;96245.31;;;9.86;14.31
32761;BME280;19126;47.472;7.850;2022-09-25T07:16:12;96242.16;;;9.90;14.56
32761;BME280;19126;47.472;7.850;2022-09-25T07:18:39;96238.34;;;9.93;13.57
32761;BME280;19126;47.472;7.850;2022-09-25T07:21:08;96248.84;;;9.93;14.34
32761;BME280;19126;47.472;7.850;2022-09-25T07:23:36;96249.31;;;9.96;13.80
32761;BME280;19126;47.472;7.850;2022-09-25T07:26:08;96249.13;;;9.98;13.53
32761;BME280;19126;47.472;7.850;2022-09-25T07:28:35;96244.50;;;10.00;13.69
32761;BME280;19126;47.472;7.850;2022-09-25T07:31:16;96246.97;;;10.02;13.30
32761;BME280;19126;47.472;7.850;2022-09-25T07:33:45;96248.25;;;10.06;14.21
32761;BME280;19126;47.472;7.850;2022-09-25T07:36:13;96255.56;;;10.10;13.66
32761;BME280;19126;47.472;7.850;2022-09-25T07:38:41;96254.19;;;10.15;13.95
32761;BME280;19126;47.472;7.850;2022-09-25T07:41:10;96256.31;;;10.19;14.26
32761;BME280;19126;47.472;7.850;2022-09-25T07:43:38;96256.47;;;10.18;13.42
32761;BME280;19126;47.472;7.850;2022-09-25T07:46:05;96262.34;;;10.20;14.02
32761;BME280;19126;47.472;7.850;2022-09-25T07:48:34;96263.19;;;10.20;13.54
32761;BME280;19126;47.472;7.850;2022-09-25T07:51:02;96267.06;;;10.24;13.23
32761;BME280;19126;47.472;7.850;2022-09-25T07:53:29;96264.97;;;10.20;13.59
32761;BME280;19126;47.472;7.850;2022-09-25T07:55:57;96269.22;;;10.21;13.13
32761;BME280;19126;47.472;7.850;2022-09-25T07:58:25;96268.06;;;10.23;13.80
32761;BME280;19126;47.472;7.850;2022-09-25T08:00:53;96264.81;;;10.21;13.21
32761;BME280;19126;47.472;7.850;2022-09-25T08:03:20;96264.19;;;10.19;13.37
32761;BME280;19126;47.472;7.850;2022-09-25T08:05:56;96262.47;;;10.26;12.84
32761;BME280;19126;47.472;7.850;2022-09-25T08:08:25;96265.16;;;10.33;12.76
32761;BME280;19126;47.472;7.850;2022-09-25T08:10:52;96263.16;;;10.35;13.45
32761;BME280;19126;47.472;7.850;2022-09-25T08:13:20;96268.47;;;10.50;12.81
32761;BME280;19126;47.472;7.850;2022-09-25T08:15:49;96269.34;;;10.58;13.11
32761;BME280;19126;47.472;7.850;2022-09-25T08:18:16;96262.38;;;10.65;13.23
32761;BME280;19126;47.472;7.850;2022-09-25T08:20:44;96270.59;;;10.77;13.33
32761;BME280;19126;47.472;7.850;2022-09-25T08:23:12;96265.69;;;10.89;13.22
32761;BME280;19126;47.472;7.850;2022-09-25T08:25:39;96269.66;;;10.84;12.91
32761;BME280;19126;47.472;7.850;2022-09-25T08:28:06;96270.13;;;10.88;12.89
32761;BME280;19126;47.472;7.850;2022-09-25T08:30:34;96276.03;;;10.90;12.89
32761;BME280;19126;47.472;7.850;2022-09-25T08:33:01;96273.66;;;10.95;12.72
32761;BME280;19126;47.472;7.850;2022-09-25T08:35:29;96274.16;;;11.06;12.85
32761;BME280;19126;47.472;7.850;2022-09-25T08:37:56;96268.41;;;11.17;12.82
32761;BME280;19126;47.472;7.850;2022-09-25T08:40:27;96272.81;;;11.32;12.76
32761;BME280;19126;47.472;7.850;2022-09-25T08:42:56;96273.56;;;11.47;12.59
32761;BME280;19126;47.472;7.850;2022-09-25T08:45:28;96270.97;;;11.54;12.37
32761;BME280;19126;47.472;7.850;2022-09-25T08:48:20;96275.69;;;11.58;11.98
32761;BME280;19126;47.472;7.850;2022-09-25T08:51:06;96278.13;;;11.60;11.98
32761;BME280;19126;47.472;7.850;2022-09-25T08:53:34;96271.06;;;11.61;12.04
32761;BME280;19126;47.472;7.850;2022-09-25T08:56:05;96269.22;;;11.61;11.26
32761;BME280;19126;47.472;7.850;2022-09-25T08:59:23;96265.69;;;11.76;12.13
32761;BME280;19126;47.472;7.850;2022-09-25T09:01:56;96265.16;;;11.87;11.45
32761;BME280;19126;47.472;7.850;2022-09-25T09:04:28;96260.47;;;12.04;11.28
32761;BME280;19126;47.472;7.850;2022-09-25T09:06:58;96258.56;;;12.20;10.95
32761;BME280;19126;47.472;7.850;2022-09-25T09:09:30;96258.44;;;12.35;11.01
32761;BME280;19126;47.472;7.850;2022-09-25T09:12:04;96258.69;;;12.40;10.00
32761;BME280;19126;47.472;7.850;2022-09-25T09:14:40;96259.91;;;12.44;10.46
32761;BME280;19126;47.472;7.850;2022-09-25T09:17:17;96256.50;;;12.57;10.02
32761;BME280;19126;47.472;7.850;2022-09-25T09:19:48;96258.97;;;12.65;11.09
32761;BME280;19126;47.472;7.850;2022-09-25T09:22:23;96257.19;;;12.66;10.81
32761;BME280;19126;47.472;7.850;2022-09-25T09:24:56;96254.09;;;12.62;12.64
32761;BME280;19126;47.472;7.850;2022-09-25T09:27:49;96259.63;;;12.74;14.34
32761;BME280;19126;47.472;7.850;2022-09-25T09:30:21;96254.78;;;12.78;19.24
32761;BME280;19126;47.472;7.850;2022-09-25T09:33:13;96260.25;;;12.83;25.98
32761;BME280;19126;47.472;7.850;2022-09-25T09:36:00;96260.66;;;12.73;35.12
32761;BME280;19126;47.472;7.850;2022-09-25T09:38:38;96260.44;;;12.68;41.47
32761;BME280;19126;47.472;7.850;2022-09-25T09:41:20;96250.72;;;12.75;45.55
32761;BME280;19126;47.472;7.850;2022-09-25T09:44:11;96249.09;;;12.81;48.00
32761;BME280;19126;47.472;7.850;2022-09-25T09:46:48;96249.72;;;12.76;49.19
32761;BME280;19126;47.472;7.850;2022-09-25T09:49:27;96251.56;;;12.82;49.25
32761;BME280;19126;47.472;7.850;2022-09-25T09:52:02;96250.34;;;12.85;51.75
32761;BME280;19126;47.472;7.850;2022-09-25T09:54:36;96254.66;;;12.99;51.33
32761;BME280;19126;47.472;7.850;2022-09-25T09:57:16;96252.03;;;13.06;58.46
32761;BME280;19126;47.472;7.850;2022-09-25T09:59:51;96254.47;;;13.08;64.61
32761;BME280;19126;47.472;7.850;2022-09-25T10:02:29;96258.31;;;13.12;67.55
32761;BME280;19126;47.472;7.850;2022-09-25T10:05:03;96257.88;;;12.95;73.06
32761;BME280;19126;47.472;7.850;2022-09-25T10:07:36;96266.63;;;13.02;70.62
32761;BME280;19126;47.472;7.850;2022-09-25T10:10:12;96262.38;;;13.01;71.03
32761;BME280;19126;47.472;7.850;2022-09-25T10:12:45;96265.00;;;13.01;74.37
32761;BME280;19126;47.472;7.850;2022-09-25T10:15:27;96265.16;;;12.86;76.45
32761;BME280;19126;47.472;7.850;2022-09-25T10:17:58;96263.53;;;12.85;77.06
32761;BME280;19126;47.472;7.850;2022-09-25T10:20:35;96259.50;;;12.96;78.05
32761;BME280;19126;47.472;7.850;2022-09-25T10:23:19;96248.78;;;13.04;78.78
32761;BME280;19126;47.472;7.850;2022-09-25T10:25:47;96257.69;;;12.96;82.99
32761;BME280;19126;47.472;7.850;2022-09-25T10:28:26;96256.09;;;13.09;82.74
32761;BME280;19126;47.472;7.850;2022-09-25T10:30:55;96257.31;;;13.13;80.59
32761;BME280;19126;47.472;7.850;2022-09-25T10:33:25;96257.31;;;13.13;80.29
32761;BME280;19126;47.472;7.850;2022-09-25T10:35:53;96248.38;;;13.14;80.18
32761;BME280;19126;47.472;7.850;2022-09-25T10:38:35;96248.59;;;13.12;78.77
32761;BME280;19126;47.472;7.850;2022-09-25T10:41:08;96243.72;;;13.16;77.18
32761;BME280;19126;47.472;7.850;2022-09-25T10:43:51;96251.25;;;13.19;78.82
32761;BME280;19126;47.472;7.850;2022-09-25T10:46:28;96248.38;;;13.14;77.91
32761;BME280;19126;47.472;7.850;2022-09-25T10:49:17;96246.56;;;13.21;76.66
32761;BME280;19126;47.472;7.850;2022-09-25T10:52:05;96239.28;;;13.16;77.15
32761;BME280;19126;47.472;7.850;2022-09-25T10:54:33;96247.38;;;13.15;78.22
32761;BME280;19126;47.472;7.850;2022-09-25T10:57:13;96251.09;;;13.27;76.81
32761;BME280;19126;47.472;7.850;2022-09-25T10:59:47;96253.56;;;13.42;76.58
32761;BME280;19126;47.472;7.850;2022-09-25T11:02:30;96260.25;;;13.52;79.21
32761;BME280;19126;47.472;7.850;2022-09-25T11:04:59;96249.94;;;13.63;81.10
32761;BME280;19126;47.472;7.850;2022-09-25T11:07:27;96251.53;;;13.71;85.50
32761;BME280;19126;47.472;7.850;2022-09-25T11:09:55;96252.94;;;14.07;85.12
32761;BME280;19126;47.472;7.850;2022-09-25T11:12:24;96243.59;;;14.18;89.61
32761;BME280;19126;47.472;7.850;2022-09-25T11:14:55;96248.88;;;14.12;97.84
32761;BME280;19126;47.472;7.850;2022-09-25T11:17:36;96241.56;;;14.20;100.00
32761;BME280;19126;47.472;7.850;2022-09-25T11:20:21;96247.03;;;14.26;100.00
32761;BME280;19126;47.472;7.850;2022-09-25T11:23:01;96247.00;;;14.32;100.00
32761;BME280;19126;47.472;7.850;2022-09-25T11:25:37;96253.75;;;14.15;100.00
32761;BME280;19126;47.472;7.850;2022-09-25T11:28:13;96242.75;;;14.18;100.00
32761;BME280;19126;47.472;7.850;2022-09-25T11:30:52;96235.84;;;14.17;100.00
32761;BME280;19126;47.472;7.850;2022-09-25T11:33:31;96249.03;;;14.30;100.00
32761;BME280;19126;47.472;7.850;2022-09-25T11:36:12;96240.50;;;14.35;100.00
32761;BME280;19126;47.472;7.850;2022-09-25T11:38:47;96242.69;;;14.45;100.00
32761;BME280;19126;47.472;7.850;2022-09-25T11:41:40;96237.00;;;14.48;100.00
32761;BME280;19126;47.472;7.850;2022-09-25T11:44:25;96243.75;;;14.37;100.00
32761;BME280;19126;47.472;7.850;2022-09-25T11:47:03;96234.75;;;14.45;100.00
32761;BME280;19126;47.472;7.850;2022-09-25T11:49:36;96236.19;;;14.47;100.00
32761;BME280;19126;47.472;7.850;2022-09-25T11:52:20;96239.03;;;14.46;100.00
32761;BME280;19126;47.472;7.850;2022-09-25T11:55:28;96236.56;;;14.51;100.00
32761;BME280;19126;47.472;7.850;2022-09-25T11:58:15;96231.13;;;14.39;100.00
32761;BME280;19126;47.472;7.850;2022-09-25T12:01:01;96225.47;;;14.22;100.00
32761;BME280;19126;47.472;7.850;2022-09-25T12:03:45;96231.19;;;14.26;100.00
32761;BME280;19126;47.472;7.850;2022-09-25T12:06:44;96221.81;;;14.23;100.00
32761;BME280;19126;47.472;7.850;2022-09-25T12:09:42;96228.94;;;14.23;100.00
32761;BME280;19126;47.472;7.850;2022-09-25T12:12:22;96233.63;;;14.20;100.00
32761;BME280;19126;47.472;7.850;2022-09-25T12:15:00;96224.47;;;14.30;100.00
32761;BME280;19126;47.472;7.850;2022-09-25T12:17:36;96226.88;;;14.38;100.00
32761;BME280;19126;47.472;7.850;2022-09-25T12:20:17;96224.66;;;14.35;100.00
32761;BME280;19126;47.472;7.850;2022-09-25T12:23:01;96231.97;;;14.33;100.00
32761;BME280;19126;47.472;7.850;2022-09-25T12:26:00;96225.84;;;14.39;100.00
32761;BME280;19126;47.472;7.850;2022-09-25T12:28:40;96226.41;;;14.48;100.00
32761;BME280;19126;47.472;7.850;2022-09-25T12:31:27;96222.34;;;14.52;100.00
32761;BME280;19126;47.472;7.850;2022-09-25T12:34:07;96223.53;;;14.56;100.00
32761;BME280;19126;47.472;7.850;2022-09-25T12:36:41;96216.81;;;14.67;100.00
32761;BME280;19126;47.472;7.850;2022-09-25T12:39:28;96214.59;;;14.64;100.00
32761;BME280;19126;47.472;7.850;2022-09-25T12:42:07;96218.25;;;14.70;100.00
32761;BME280;19126;47.472;7.850;2022-09-25T12:44:45;96215.38;;;14.78;100.00
32761;BME280;19126;47.472;7.850;2022-09-25T12:47:22;96213.53;;;14.78;100.00
32761;BME280;19126;47.472;7.850;2022-09-25T12:49:57;96217.53;;;14.94;100.00
32761;BME280;19126;47.472;7.850;2022-09-25T12:52:31;96215.69;;;14.95;100.00
32761;BME280;19126;47.472;7.850;2022-09-25T12:55:09;96222.94;;;15.06;100.00
32761;BME280;19126;47.472;7.850;2022-09-25T12:57:42;96222.94;;;15.06;100.00
32761;BME280;19126;47.472;7.850;2022-09-25T13:00:18;96218.66;;;15.05;100.00
32761;BME280;19126;47.472;7.850;2022-09-25T13:02:54;96220.97;;;14.95;100.00
32761;BME280;19126;47.472;7.850;2022-09-25T13:05:29;96213.78;;;14.63;100.00
32761;BME280;19126;47.472;7.850;2022-09-25T13:08:04;96213.38;;;14.53;100.00
32761;BME280;19126;47.472;7.850;2022-09-25T13:10:40;96207.06;;;14.68;100.00
32761;BME280;19126;47.472;7.850;2022-09-25T13:13:12;96208.28;;;14.72;100.00
32761;BME280;19126;47.472;7.850;2022-09-25T13:15:48;96206.00;;;14.75;100.00
32761;BME280;19126;47.472;7.850;2022-09-25T13:18:20;96209.25;;;14.84;100.00
32761;BME280;19126;47.472;7.850;2022-09-25T13:20:51;96203.78;;;14.72;100.00
32761;BME280;19126;47.472;7.850;2022-09-25T13:23:32;96206.03;;;14.69;100.00
32761;BME280;19126;47.472;7.850;2022-09-25T13:26:12;96207.69;;;14.70;100.00
32761;BME280;19126;47.472;7.850;2022-09-25T13:28:48;96213.78;;;14.70;100.00
32761;BME280;19126;47.472;7.850;2022-09-25T13:31:22;96209.81;;;14.27;100.00
32761;BME280;19126;47.472;7.850;2022-09-25T13:33:53;96207.19;;;14.27;100.00
32761;BME280;19126;47.472;7.850;2022-09-25T13:36:40;96211.19;;;14.43;100.00